sensor_id;sensor_type;location;lat;lon;timestamp;P1;durP1;ratioP1;P2;durP2;ratioP2
11548;SDS011;61444;59.472;18.306;2023-04-25T00:00:43;3.80;;;2.93;;
11548;SDS011;61444;59.472;18.306;2023-04-25T00:02:53;2.97;;;2.57;;
11548;SDS011;61444;59.472;18.306;2023-04-25T00:05:03;3.60;;;2.30;;
11548;SDS011;61444;59.472;18.306;2023-04-25T00:07:14;5.97;;;2.63;;
11548;SDS011;61444;59.472;18.306;2023-04-25T00:09:23;3.23;;;2.80;;
11548;SDS011;61444;59.472;18.306;2023-04-25T00:11:32;5.23;;;2.40;;
11548;SDS011;61444;59.472;18.306;2023-04-25T00:13:41;4.03;;;2.50;;
11548;SDS011;61444;59.472;18.306;2023-04-25T00:15:50;3.70;;;2.80;;
11548;SDS011;61444;59.472;18.306;2023-04-25T00:17:59;3.93;;;2.90;;
11548;SDS011;61444;59.472;18.306;2023-04-25T00:20:09;4.13;;;2.57;;
11548;SDS011;61444;59.472;18.306;2023-04-25T00:22:20;3.40;;;2.63;;
11548;SDS011;61444;59.472;18.306;2023-04-25T00:24:29;3.93;;;2.70;;
11548;SDS011;61444;59.472;18.306;2023-04-25T00:26:38;3.77;;;2.73;;
11548;SDS011;61444;59.472;18.306;2023-04-25T00:28:47;4.27;;;3.33;;
11548;SDS011;61444;59.472;18.306;2023-04-25T00:30:56;3.47;;;3.03;;
11548;SDS011;61444;59.472;18.306;2023-04-25T00:33:04;6.37;;;3.27;;
11548;SDS011;61444;59.472;18.306;2023-04-25T00:35:14;4.87;;;3.23;;
11548;SDS011;61444;59.472;18.306;2023-04-25T00:37:24;4.23;;;3.03;;
11548;SDS011;61444;59.472;18.306;2023-04-25T00:39:33;4.00;;;3.27;;
11548;SDS011;61444;59.472;18.306;2023-04-25T00:41:41;4.57;;;3.23;;
11548;SDS011;61444;59.472;18.306;2023-04-25T00:43:51;4.60;;;2.97;;
11548;SDS011;61444;59.472;18.306;2023-04-25T00:46:01;5.70;;;2.80;;
11548;SDS011;61444;59.472;18.306;2023-04-25T00:48:10;4.87;;;3.10;;
11548;SDS011;61444;59.472;18.306;2023-04-25T00:50:19;4.10;;;3.17;;
11548;SDS011;61444;59.472;18.306;2023-04-25T00:52:30;5.17;;;3.17;;
11548;SDS011;61444;59.472;18.306;2023-04-25T00:54:39;4.63;;;3.27;;
11548;SDS011;61444;59.472;18.306;2023-04-25T00:56:48;5.67;;;3.40;;
11548;SDS011;61444;59.472;18.306;2023-04-25T00:58:57;4.47;;;3.13;;
11548;SDS011;61444;59.472;18.306;2023-04-25T01:01:06;3.83;;;3.13;;
11548;SDS011;61444;59.472;18.306;2023-04-25T01:03:15;4.67;;;3.27;;
11548;SDS011;61444;59.472;18.306;2023-04-25T01:05:26;4.10;;;3.07;;
11548;SDS011;61444;59.472;18.306;2023-04-25T01:07:36;5.83;;;3.00;;
11548;SDS011;61444;59.472;18.306;2023-04-25T01:09:46;4.00;;;2.80;;
11548;SDS011;61444;59.472;18.306;2023-04-25T01:11:55;4.83;;;3.00;;
11548;SDS011;61444;59.472;18.306;2023-04-25T01:14:04;7.00;;;3.43;;
11548;SDS011;61444;59.472;18.306;2023-04-25T01:16:12;3.73;;;2.67;;
11548;SDS011;61444;59.472;18.306;2023-04-25T01:18:21;5.63;;;3.17;;
11548;SDS011;61444;59.472;18.306;2023-04-25T01:20:31;5.07;;;3.00;;
11548;SDS011;61444;59.472;18.306;2023-04-25T01:22:42;4.17;;;3.33;;
11548;SDS011;61444;59.472;18.306;2023-04-25T01:24:51;6.00;;;3.03;;
11548;SDS011;61444;59.472;18.306;2023-04-25T01:27:00;5.10;;;3.00;;
11548;SDS011;61444;59.472;18.306;2023-04-25T01:29:09;5.83;;;3.40;;
11548;SDS011;61444;59.472;18.306;2023-04-25T01:31:19;3.57;;;2.90;;
11548;SDS011;61444;59.472;18.306;2023-04-25T01:33:27;4.03;;;2.93;;
11548;SDS011;61444;59.472;18.306;2023-04-25T01:35:36;5.10;;;2.87;;
11548;SDS011;61444;59.472;18.306;2023-04-25T01:37:48;4.03;;;3.10;;
11548;SDS011;61444;59.472;18.306;2023-04-25T01:39:57;3.80;;;2.40;;
11548;SDS011;61444;59.472;18.306;2023-04-25T01:42:06;6.07;;;2.80;;
11548;SDS011;61444;59.472;18.306;2023-04-25T01:44:15;3.10;;;2.60;;
11548;SDS011;61444;59.472;18.306;2023-04-25T01:46:24;3.60;;;2.53;;
11548;SDS011;61444;59.472;18.306;2023-04-25T01:48:33;2.97;;;2.47;;
11548;SDS011;61444;59.472;18.306;2023-04-25T01:50:42;3.00;;;2.17;;
11548;SDS011;61444;59.472;18.306;2023-04-25T01:52:53;3.10;;;2.43;;
11548;SDS011;61444;59.472;18.306;2023-04-25T01:55:03;3.57;;;2.40;;
11548;SDS011;61444;59.472;18.306;2023-04-25T01:57:13;2.80;;;1.80;;
11548;SDS011;61444;59.472;18.306;2023-04-25T01:59:22;2.87;;;2.10;;
11548;SDS011;61444;59.472;18.306;2023-04-25T02:01:31;4.03;;;2.37;;
11548;SDS011;61444;59.472;18.306;2023-04-25T02:03:40;2.33;;;1.70;;
11548;SDS011;61444;59.472;18.306;2023-04-25T02:05:49;2.07;;;1.60;;
11548;SDS011;61444;59.472;18.306;2023-04-25T02:08:00;2.33;;;1.90;;
11548;SDS011;61444;59.472;18.306;2023-04-25T02:10:09;2.90;;;2.10;;
11548;SDS011;61444;59.472;18.306;2023-04-25T02:12:18;2.63;;;1.80;;
11548;SDS011;61444;59.472;18.306;2023-04-25T02:14:27;2.00;;;1.30;;
11548;SDS011;61444;59.472;18.306;2023-04-25T02:16:37;3.03;;;1.83;;
11548;SDS011;61444;59.472;18.306;2023-04-25T02:18:46;2.30;;;1.70;;
11548;SDS011;61444;59.472;18.306;2023-04-25T02:20:55;2.00;;;1.50;;
11548;SDS011;61444;59.472;18.306;2023-04-25T02:23:05;2.93;;;1.73;;
11548;SDS011;61444;59.472;18.306;2023-04-25T02:25:14;2.47;;;1.80;;
11548;SDS011;61444;59.472;18.306;2023-04-25T02:27:24;2.93;;;1.60;;
11548;SDS011;61444;59.472;18.306;2023-04-25T02:29:32;2.30;;;1.47;;
11548;SDS011;61444;59.472;18.306;2023-04-25T02:31:41;1.83;;;1.50;;
11548;SDS011;61444;59.472;18.306;2023-04-25T02:33:51;1.93;;;1.53;;
11548;SDS011;61444;59.472;18.306;2023-04-25T02:36:00;2.70;;;1.60;;
11548;SDS011;61444;59.472;18.306;2023-04-25T02:38:11;1.83;;;1.50;;
11548;SDS011;61444;59.472;18.306;2023-04-25T02:40:20;2.10;;;1.30;;
11548;SDS011;61444;59.472;18.306;2023-04-25T02:42:29;2.97;;;1.40;;
11548;SDS011;61444;59.472;18.306;2023-04-25T02:44:38;1.93;;;1.47;;
11548;SDS011;61444;59.472;18.306;2023-04-25T02:46:46;1.80;;;1.50;;
11548;SDS011;61444;59.472;18.306;2023-04-25T02:48:55;1.90;;;1.50;;
11548;SDS011;61444;59.472;18.306;2023-04-25T02:51:05;1.73;;;1.30;;
11548;SDS011;61444;59.472;18.306;2023-04-25T02:53:16;1.73;;;1.27;;
11548;SDS011;61444;59.472;18.306;2023-04-25T02:55:25;1.50;;;1.20;;
11548;SDS011;61444;59.472;18.306;2023-04-25T02:57:34;1.63;;;1.20;;
11548;SDS011;61444;59.472;18.306;2023-04-25T02:59:43;1.50;;;1.37;;
11548;SDS011;61444;59.472;18.306;2023-04-25T03:01:52;1.57;;;1.20;;
11548;SDS011;61444;59.472;18.306;2023-04-25T03:04:01;1.67;;;1.20;;
11548;SDS011;61444;59.472;18.306;2023-04-25T03:06:10;1.33;;;1.10;;
11548;SDS011;61444;59.472;18.306;2023-04-25T03:08:20;1.73;;;1.23;;
11548;SDS011;61444;59.472;18.306;2023-04-25T03:10:29;1.37;;;1.10;;
11548;SDS011;61444;59.472;18.306;2023-04-25T03:12:37;2.93;;;1.20;;
11548;SDS011;61444;59.472;18.306;2023-04-25T03:14:47;2.03;;;0.97;;
11548;SDS011;61444;59.472;18.306;2023-04-25T03:16:56;1.90;;;1.07;;
11548;SDS011;61444;59.472;18.306;2023-04-25T03:19:05;1.50;;;1.00;;
11548;SDS011;61444;59.472;18.306;2023-04-25T03:21:14;1.40;;;1.07;;
11548;SDS011;61444;59.472;18.306;2023-04-25T03:23:24;1.20;;;1.00;;
11548;SDS011;61444;59.472;18.306;2023-04-25T03:25:33;1.30;;;0.87;;
11548;SDS011;61444;59.472;18.306;2023-04-25T03:27:42;1.00;;;0.90;;
11548;SDS011;61444;59.472;18.306;2023-04-25T03:29:51;1.20;;;1.03;;
11548;SDS011;61444;59.472;18.306;2023-04-25T03:32:00;1.23;;;1.03;;
11548;SDS011;61444;59.472;18.306;2023-04-25T03:34:09;1.50;;;1.07;;
11548;SDS011;61444;59.472;18.306;2023-04-25T03:36:18;1.00;;;0.80;;
11548;SDS011;61444;59.472;18.306;2023-04-25T03:38:29;1.60;;;1.10;;
11548;SDS011;61444;59.472;18.306;2023-04-25T03:40:37;1.50;;;1.20;;
11548;SDS011;61444;59.472;18.306;2023-04-25T03:42:46;1.57;;;1.00;;
11548;SDS011;61444;59.472;18.306;2023-04-25T03:44:55;1.00;;;0.90;;
11548;SDS011;61444;59.472;18.306;2023-04-25T03:47:04;3.00;;;1.93;;
11548;SDS011;61444;59.472;18.306;2023-04-25T03:49:13;2.03;;;0.90;;
11548;SDS011;61444;59.472;18.306;2023-04-25T03:51:24;1.10;;;0.93;;
11548;SDS011;61444;59.472;18.306;2023-04-25T03:53:35;1.27;;;1.00;;
11548;SDS011;61444;59.472;18.306;2023-04-25T03:55:44;1.13;;;1.00;;
11548;SDS011;61444;59.472;18.306;2023-04-25T03:57:52;1.50;;;0.93;;
11548;SDS011;61444;59.472;18.306;2023-04-25T04:00:02;1.83;;;1.10;;
11548;SDS011;61444;59.472;18.306;2023-04-25T04:02:11;1.53;;;1.10;;
11548;SDS011;61444;59.472;18.306;2023-04-25T04:04:20;0.90;;;0.80;;
11548;SDS011;61444;59.472;18.306;2023-04-25T04:06:29;1.33;;;1.10;;
11548;SDS011;61444;59.472;18.306;2023-04-25T04:08:40;1.20;;;1.10;;
11548;SDS011;61444;59.472;18.306;2023-04-25T04:10:48;1.43;;;0.93;;
11548;SDS011;61444;59.472;18.306;2023-04-25T04:12:57;1.80;;;1.00;;
11548;SDS011;61444;59.472;18.306;2023-04-25T04:15:06;3.00;;;1.40;;
11548;SDS011;61444;59.472;18.306;2023-04-25T04:17:16;1.20;;;1.00;;
11548;SDS011;61444;59.472;18.306;2023-04-25T04:19:25;2.43;;;1.03;;
11548;SDS011;61444;59.472;18.306;2023-04-25T04:21:34;1.73;;;1.30;;
11548;SDS011;61444;59.472;18.306;2023-04-25T04:23:45;4.80;;;1.27;;
11548;SDS011;61444;59.472;18.306;2023-04-25T04:25:55;1.80;;;1.40;;
11548;SDS011;61444;59.472;18.306;2023-04-25T04:28:03;1.50;;;1.30;;
11548;SDS011;61444;59.472;18.306;2023-04-25T04:30:12;2.30;;;1.50;;
11548;SDS011;61444;59.472;18.306;2023-04-25T04:32:21;2.00;;;1.80;;
11548;SDS011;61444;59.472;18.306;2023-04-25T04:34:32;2.90;;;1.70;;
11548;SDS011;61444;59.472;18.306;2023-04-25T04:36:41;1.90;;;1.50;;
11548;SDS011;61444;59.472;18.306;2023-04-25T04:38:53;5.47;;;2.03;;
11548;SDS011;61444;59.472;18.306;2023-04-25T04:41:02;2.30;;;1.80;;
11548;SDS011;61444;59.472;18.306;2023-04-25T04:43:12;2.30;;;1.77;;
11548;SDS011;61444;59.472;18.306;2023-04-25T04:45:23;2.30;;;2.00;;
11548;SDS011;61444;59.472;18.306;2023-04-25T04:47:34;3.50;;;2.13;;
11548;SDS011;61444;59.472;18.306;2023-04-25T04:49:43;3.10;;;2.20;;
11548;SDS011;61444;59.472;18.306;2023-04-25T04:51:52;3.80;;;2.27;;
11548;SDS011;61444;59.472;18.306;2023-04-25T04:54:06;3.17;;;2.40;;
11548;SDS011;61444;59.472;18.306;2023-04-25T04:56:15;2.90;;;2.30;;
11548;SDS011;61444;59.472;18.306;2023-04-25T04:58:27;3.77;;;2.50;;
11548;SDS011;61444;59.472;18.306;2023-04-25T05:00:37;4.73;;;2.33;;
11548;SDS011;61444;59.472;18.306;2023-04-25T05:02:46;4.07;;;2.43;;
11548;SDS011;61444;59.472;18.306;2023-04-25T05:04:56;4.03;;;2.60;;
11548;SDS011;61444;59.472;18.306;2023-04-25T05:07:05;4.03;;;2.80;;
11548;SDS011;61444;59.472;18.306;2023-04-25T05:09:15;6.00;;;3.17;;
11548;SDS011;61444;59.472;18.306;2023-04-25T05:11:25;5.43;;;2.90;;
11548;SDS011;61444;59.472;18.306;2023-04-25T05:13:35;4.50;;;2.53;;
11548;SDS011;61444;59.472;18.306;2023-04-25T05:15:44;6.77;;;3.20;;
11548;SDS011;61444;59.472;18.306;2023-04-25T05:17:53;4.03;;;2.80;;
11548;SDS011;61444;59.472;18.306;2023-04-25T05:20:02;6.63;;;2.90;;
11548;SDS011;61444;59.472;18.306;2023-04-25T05:22:12;5.43;;;2.93;;
11548;SDS011;61444;59.472;18.306;2023-04-25T05:24:22;6.00;;;2.77;;
11548;SDS011;61444;59.472;18.306;2023-04-25T05:26:31;5.30;;;3.00;;
11548;SDS011;61444;59.472;18.306;2023-04-25T05:28:40;4.40;;;3.07;;
11548;SDS011;61444;59.472;18.306;2023-04-25T05:30:49;6.20;;;2.97;;
11548;SDS011;61444;59.472;18.306;2023-04-25T05:32:58;5.47;;;3.20;;
11548;SDS011;61444;59.472;18.306;2023-04-25T05:35:08;5.33;;;2.77;;
11548;SDS011;61444;59.472;18.306;2023-04-25T05:37:17;4.87;;;2.90;;
11548;SDS011;61444;59.472;18.306;2023-04-25T05:39:27;5.03;;;2.90;;
11548;SDS011;61444;59.472;18.306;2023-04-25T05:41:36;5.50;;;3.00;;
11548;SDS011;61444;59.472;18.306;2023-04-25T05:43:46;5.03;;;2.70;;
11548;SDS011;61444;59.472;18.306;2023-04-25T05:45:56;3.57;;;2.57;;
11548;SDS011;61444;59.472;18.306;2023-04-25T05:48:05;4.23;;;2.50;;
11548;SDS011;61444;59.472;18.306;2023-04-25T05:50:14;4.80;;;3.10;;
11548;SDS011;61444;59.472;18.306;2023-04-25T05:52:24;5.83;;;2.83;;
11548;SDS011;61444;59.472;18.306;2023-04-25T05:54:34;5.07;;;2.87;;
11548;SDS011;61444;59.472;18.306;2023-04-25T05:56:43;5.43;;;2.97;;
11548;SDS011;61444;59.472;18.306;2023-04-25T05:58:52;4.70;;;2.70;;
11548;SDS011;61444;59.472;18.306;2023-04-25T06:01:01;3.73;;;2.30;;
11548;SDS011;61444;59.472;18.306;2023-04-25T06:03:11;4.17;;;2.73;;
11548;SDS011;61444;59.472;18.306;2023-04-25T06:05:25;4.27;;;2.83;;
11548;SDS011;61444;59.472;18.306;2023-04-25T06:07:34;4.93;;;2.80;;
11548;SDS011;61444;59.472;18.306;2023-04-25T06:09:45;4.83;;;2.47;;
11548;SDS011;61444;59.472;18.306;2023-04-25T06:11:54;3.97;;;2.80;;
11548;SDS011;61444;59.472;18.306;2023-04-25T06:14:03;5.00;;;2.73;;
11548;SDS011;61444;59.472;18.306;2023-04-25T06:16:12;5.03;;;2.67;;
11548;SDS011;61444;59.472;18.306;2023-04-25T06:18:21;4.70;;;2.60;;
11548;SDS011;61444;59.472;18.306;2023-04-25T06:20:30;6.10;;;2.50;;
11548;SDS011;61444;59.472;18.306;2023-04-25T06:22:39;5.17;;;2.90;;
11548;SDS011;61444;59.472;18.306;2023-04-25T06:24:49;4.17;;;2.50;;
11548;SDS011;61444;59.472;18.306;2023-04-25T06:26:59;3.10;;;2.60;;
11548;SDS011;61444;59.472;18.306;2023-04-25T06:29:07;3.70;;;2.37;;
11548;SDS011;61444;59.472;18.306;2023-04-25T06:31:17;4.43;;;2.70;;
11548;SDS011;61444;59.472;18.306;2023-04-25T06:33:26;2.93;;;2.30;;
11548;SDS011;61444;59.472;18.306;2023-04-25T06:35:35;4.70;;;2.53;;
11548;SDS011;61444;59.472;18.306;2023-04-25T06:37:44;2.83;;;2.27;;
11548;SDS011;61444;59.472;18.306;2023-04-25T06:39:57;3.17;;;2.23;;
11548;SDS011;61444;59.472;18.306;2023-04-25T06:42:06;3.97;;;2.63;;
11548;SDS011;61444;59.472;18.306;2023-04-25T06:44:15;3.47;;;2.10;;
11548;SDS011;61444;59.472;18.306;2023-04-25T06:46:24;4.33;;;2.63;;
11548;SDS011;61444;59.472;18.306;2023-04-25T06:48:33;3.37;;;2.30;;
11548;SDS011;61444;59.472;18.306;2023-04-25T06:50:42;3.63;;;2.50;;
11548;SDS011;61444;59.472;18.306;2023-04-25T06:52:52;4.70;;;2.67;;
11548;SDS011;61444;59.472;18.306;2023-04-25T06:55:02;4.13;;;2.57;;
11548;SDS011;61444;59.472;18.306;2023-04-25T06:57:11;4.47;;;2.80;;
11548;SDS011;61444;59.472;18.306;2023-04-25T06:59:21;3.80;;;2.60;;
11548;SDS011;61444;59.472;18.306;2023-04-25T07:01:30;5.87;;;3.57;;
11548;SDS011;61444;59.472;18.306;2023-04-25T07:03:39;4.03;;;2.80;;
11548;SDS011;61444;59.472;18.306;2023-04-25T07:05:48;4.37;;;3.00;;
11548;SDS011;61444;59.472;18.306;2023-04-25T07:07:57;2.47;;;2.10;;
11548;SDS011;61444;59.472;18.306;2023-04-25T07:10:09;2.87;;;2.10;;
11548;SDS011;61444;59.472;18.306;2023-04-25T07:12:18;3.30;;;2.60;;
11548;SDS011;61444;59.472;18.306;2023-04-25T07:14:27;2.87;;;2.20;;
11548;SDS011;61444;59.472;18.306;2023-04-25T07:16:36;3.10;;;2.30;;
11548;SDS011;61444;59.472;18.306;2023-04-25T07:18:44;3.87;;;2.17;;
11548;SDS011;61444;59.472;18.306;2023-04-25T07:20:54;3.13;;;2.13;;
11548;SDS011;61444;59.472;18.306;2023-04-25T07:23:02;4.17;;;1.90;;
11548;SDS011;61444;59.472;18.306;2023-04-25T07:25:13;3.23;;;1.40;;
11548;SDS011;61444;59.472;18.306;2023-04-25T07:27:22;2.67;;;1.90;;
11548;SDS011;61444;59.472;18.306;2023-04-25T07:29:31;3.37;;;1.60;;
11548;SDS011;61444;59.472;18.306;2023-04-25T07:31:43;2.63;;;2.07;;
11548;SDS011;61444;59.472;18.306;2023-04-25T07:33:52;3.43;;;1.90;;
11548;SDS011;61444;59.472;18.306;2023-04-25T07:36:01;3.80;;;2.10;;
11548;SDS011;61444;59.472;18.306;2023-04-25T07:38:09;3.00;;;2.10;;
11548;SDS011;61444;59.472;18.306;2023-04-25T07:40:20;3.83;;;1.97;;
11548;SDS011;61444;59.472;18.306;2023-04-25T07:42:29;3.57;;;1.93;;
11548;SDS011;61444;59.472;18.306;2023-04-25T07:44:38;3.40;;;2.10;;
11548;SDS011;61444;59.472;18.306;2023-04-25T07:46:49;3.17;;;2.27;;
11548;SDS011;61444;59.472;18.306;2023-04-25T07:48:57;3.60;;;2.30;;
11548;SDS011;61444;59.472;18.306;2023-04-25T07:51:06;3.53;;;2.37;;
11548;SDS011;61444;59.472;18.306;2023-04-25T07:53:16;3.40;;;2.30;;
11548;SDS011;61444;59.472;18.306;2023-04-25T07:55:26;4.03;;;2.63;;
11548;SDS011;61444;59.472;18.306;2023-04-25T07:57:36;4.03;;;2.60;;
11548;SDS011;61444;59.472;18.306;2023-04-25T07:59:45;3.87;;;2.70;;
11548;SDS011;61444;59.472;18.306;2023-04-25T08:01:54;3.70;;;2.60;;
11548;SDS011;61444;59.472;18.306;2023-04-25T08:04:04;4.73;;;2.90;;
11548;SDS011;61444;59.472;18.306;2023-04-25T08:06:13;5.80;;;4.20;;
11548;SDS011;61444;59.472;18.306;2023-04-25T08:08:22;9.27;;;6.27;;
11548;SDS011;61444;59.472;18.306;2023-04-25T08:10:33;13.00;;;9.23;;
11548;SDS011;61444;59.472;18.306;2023-04-25T08:12:42;7.90;;;5.60;;
11548;SDS011;61444;59.472;18.306;2023-04-25T08:14:51;6.37;;;4.37;;
11548;SDS011;61444;59.472;18.306;2023-04-25T08:16:59;5.53;;;3.73;;
11548;SDS011;61444;59.472;18.306;2023-04-25T08:19:09;4.70;;;3.27;;
11548;SDS011;61444;59.472;18.306;2023-04-25T08:21:17;5.87;;;3.80;;
11548;SDS011;61444;59.472;18.306;2023-04-25T08:23:26;5.47;;;3.30;;
11548;SDS011;61444;59.472;18.306;2023-04-25T08:25:37;4.60;;;3.40;;
11548;SDS011;61444;59.472;18.306;2023-04-25T08:27:46;4.13;;;3.60;;
11548;SDS011;61444;59.472;18.306;2023-04-25T08:29:55;4.50;;;3.27;;
11548;SDS011;61444;59.472;18.306;2023-04-25T08:32:05;5.87;;;3.83;;
11548;SDS011;61444;59.472;18.306;2023-04-25T08:34:14;4.27;;;3.30;;
11548;SDS011;61444;59.472;18.306;2023-04-25T08:36:23;4.27;;;3.37;;
11548;SDS011;61444;59.472;18.306;2023-04-25T08:38:37;8.10;;;3.40;;
11548;SDS011;61444;59.472;18.306;2023-04-25T08:40:49;6.13;;;3.83;;
11548;SDS011;61444;59.472;18.306;2023-04-25T08:42:58;5.00;;;3.60;;
11548;SDS011;61444;59.472;18.306;2023-04-25T08:45:07;4.70;;;3.13;;
11548;SDS011;61444;59.472;18.306;2023-04-25T08:47:17;6.07;;;4.03;;
11548;SDS011;61444;59.472;18.306;2023-04-25T08:49:27;6.60;;;3.97;;
11548;SDS011;61444;59.472;18.306;2023-04-25T08:51:40;4.63;;;3.97;;
11548;SDS011;61444;59.472;18.306;2023-04-25T08:53:50;4.70;;;3.60;;
11548;SDS011;61444;59.472;18.306;2023-04-25T08:56:07;5.70;;;3.83;;
11548;SDS011;61444;59.472;18.306;2023-04-25T08:58:16;5.40;;;3.63;;
11548;SDS011;61444;59.472;18.306;2023-04-25T09:00:26;5.60;;;3.80;;
11548;SDS011;61444;59.472;18.306;2023-04-25T09:02:35;5.57;;;4.17;;
11548;SDS011;61444;59.472;18.306;2023-04-25T09:04:44;6.43;;;4.20;;
11548;SDS011;61444;59.472;18.306;2023-04-25T09:06:53;6.50;;;4.47;;
11548;SDS011;61444;59.472;18.306;2023-04-25T09:09:02;5.77;;;4.50;;
11548;SDS011;61444;59.472;18.306;2023-04-25T09:11:14;5.73;;;3.90;;
11548;SDS011;61444;59.472;18.306;2023-04-25T09:13:27;5.27;;;3.57;;
11548;SDS011;61444;59.472;18.306;2023-04-25T09:15:46;6.63;;;4.17;;
11548;SDS011;61444;59.472;18.306;2023-04-25T09:17:56;6.57;;;4.90;;
11548;SDS011;61444;59.472;18.306;2023-04-25T09:20:05;6.87;;;4.27;;
11548;SDS011;61444;59.472;18.306;2023-04-25T09:22:15;7.17;;;4.57;;
11548;SDS011;61444;59.472;18.306;2023-04-25T09:24:31;6.53;;;4.13;;
11548;SDS011;61444;59.472;18.306;2023-04-25T09:26:42;7.87;;;4.00;;
11548;SDS011;61444;59.472;18.306;2023-04-25T09:28:57;6.53;;;4.30;;
11548;SDS011;61444;59.472;18.306;2023-04-25T09:31:20;5.43;;;4.03;;
11548;SDS011;61444;59.472;18.306;2023-04-25T09:33:32;9.13;;;3.90;;
11548;SDS011;61444;59.472;18.306;2023-04-25T09:35:43;6.17;;;3.83;;
11548;SDS011;61444;59.472;18.306;2023-04-25T09:37:53;4.93;;;3.77;;
11548;SDS011;61444;59.472;18.306;2023-04-25T09:40:05;5.53;;;3.73;;
11548;SDS011;61444;59.472;18.306;2023-04-25T09:42:18;6.37;;;4.30;;
11548;SDS011;61444;59.472;18.306;2023-04-25T09:44:30;6.93;;;4.67;;
11548;SDS011;61444;59.472;18.306;2023-04-25T09:46:39;5.43;;;3.57;;
11548;SDS011;61444;59.472;18.306;2023-04-25T09:48:49;5.47;;;3.50;;
11548;SDS011;61444;59.472;18.306;2023-04-25T09:51:06;4.90;;;3.40;;
11548;SDS011;61444;59.472;18.306;2023-04-25T09:53:16;4.67;;;3.27;;
11548;SDS011;61444;59.472;18.306;2023-04-25T09:55:25;4.40;;;3.20;;
11548;SDS011;61444;59.472;18.306;2023-04-25T09:57:35;4.13;;;2.90;;
11548;SDS011;61444;59.472;18.306;2023-04-25T09:59:46;4.93;;;3.60;;
11548;SDS011;61444;59.472;18.306;2023-04-25T10:01:55;5.20;;;3.60;;
11548;SDS011;61444;59.472;18.306;2023-04-25T10:04:04;4.20;;;3.47;;
11548;SDS011;61444;59.472;18.306;2023-04-25T10:06:16;4.43;;;3.23;;
11548;SDS011;61444;59.472;18.306;2023-04-25T10:08:29;6.00;;;4.27;;
11548;SDS011;61444;59.472;18.306;2023-04-25T10:10:40;5.63;;;4.17;;
11548;SDS011;61444;59.472;18.306;2023-04-25T10:12:50;5.30;;;4.30;;
11548;SDS011;61444;59.472;18.306;2023-04-25T10:14:59;6.00;;;4.57;;
11548;SDS011;61444;59.472;18.306;2023-04-25T10:17:08;6.77;;;4.70;;
11548;SDS011;61444;59.472;18.306;2023-04-25T10:19:18;6.47;;;4.80;;
11548;SDS011;61444;59.472;18.306;2023-04-25T10:21:27;7.77;;;5.67;;
11548;SDS011;61444;59.472;18.306;2023-04-25T10:23:37;6.57;;;4.63;;
11548;SDS011;61444;59.472;18.306;2023-04-25T10:25:46;7.50;;;5.50;;
11548;SDS011;61444;59.472;18.306;2023-04-25T10:27:57;6.73;;;4.80;;
11548;SDS011;61444;59.472;18.306;2023-04-25T10:30:09;8.07;;;5.47;;
11548;SDS011;61444;59.472;18.306;2023-04-25T10:32:19;8.40;;;5.60;;
11548;SDS011;61444;59.472;18.306;2023-04-25T10:34:38;8.40;;;5.83;;
11548;SDS011;61444;59.472;18.306;2023-04-25T10:36:49;6.27;;;4.70;;
11548;SDS011;61444;59.472;18.306;2023-04-25T10:39:02;12.87;;;5.70;;
11548;SDS011;61444;59.472;18.306;2023-04-25T10:41:14;7.80;;;5.60;;
11548;SDS011;61444;59.472;18.306;2023-04-25T10:43:49;7.50;;;5.17;;
11548;SDS011;61444;59.472;18.306;2023-04-25T10:45:59;8.97;;;6.10;;
11548;SDS011;61444;59.472;18.306;2023-04-25T10:50:37;8.10;;;5.70;;
11548;SDS011;61444;59.472;18.306;2023-04-25T10:52:47;9.07;;;6.33;;
11548;SDS011;61444;59.472;18.306;2023-04-25T10:54:56;7.43;;;5.57;;
11548;SDS011;61444;59.472;18.306;2023-04-25T10:57:05;10.07;;;6.10;;
11548;SDS011;61444;59.472;18.306;2023-04-25T10:59:16;8.30;;;6.00;;
11548;SDS011;61444;59.472;18.306;2023-04-25T11:01:25;7.97;;;6.00;;
11548;SDS011;61444;59.472;18.306;2023-04-25T11:03:37;9.57;;;6.73;;
11548;SDS011;61444;59.472;18.306;2023-04-25T11:05:46;9.57;;;6.73;;
11548;SDS011;61444;59.472;18.306;2023-04-25T11:08:03;8.63;;;6.87;;
11548;SDS011;61444;59.472;18.306;2023-04-25T11:10:15;9.93;;;7.30;;
11548;SDS011;61444;59.472;18.306;2023-04-25T11:12:25;8.33;;;7.37;;
11548;SDS011;61444;59.472;18.306;2023-04-25T11:14:36;10.30;;;7.70;;
11548;SDS011;61444;59.472;18.306;2023-04-25T11:16:45;10.33;;;7.57;;
11548;SDS011;61444;59.472;18.306;2023-04-25T11:18:56;10.17;;;7.10;;
11548;SDS011;61444;59.472;18.306;2023-04-25T11:21:06;9.90;;;7.00;;
11548;SDS011;61444;59.472;18.306;2023-04-25T11:23:15;10.60;;;7.17;;
11548;SDS011;61444;59.472;18.306;2023-04-25T11:25:24;12.63;;;8.83;;
11548;SDS011;61444;59.472;18.306;2023-04-25T11:27:33;10.23;;;7.97;;
11548;SDS011;61444;59.472;18.306;2023-04-25T11:29:44;11.37;;;8.47;;
11548;SDS011;61444;59.472;18.306;2023-04-25T11:31:55;12.57;;;8.40;;
11548;SDS011;61444;59.472;18.306;2023-04-25T11:34:04;11.77;;;8.47;;
11548;SDS011;61444;59.472;18.306;2023-04-25T11:36:13;13.03;;;9.43;;
11548;SDS011;61444;59.472;18.306;2023-04-25T11:38:22;10.97;;;8.80;;
11548;SDS011;61444;59.472;18.306;2023-04-25T11:40:35;11.57;;;8.27;;
11548;SDS011;61444;59.472;18.306;2023-04-25T11:42:44;10.70;;;8.33;;
11548;SDS011;61444;59.472;18.306;2023-04-25T11:44:55;11.50;;;9.37;;
11548;SDS011;61444;59.472;18.306;2023-04-25T11:47:05;11.30;;;8.33;;
11548;SDS011;61444;59.472;18.306;2023-04-25T11:49:14;11.73;;;8.87;;
11548;SDS011;61444;59.472;18.306;2023-04-25T11:51:24;11.17;;;8.17;;
11548;SDS011;61444;59.472;18.306;2023-04-25T11:53:33;9.20;;;7.80;;
11548;SDS011;61444;59.472;18.306;2023-04-25T11:55:42;10.00;;;7.60;;
11548;SDS011;61444;59.472;18.306;2023-04-25T11:57:51;10.37;;;8.70;;
11548;SDS011;61444;59.472;18.306;2023-04-25T12:00:12;11.40;;;8.20;;
11548;SDS011;61444;59.472;18.306;2023-04-25T12:02:24;13.57;;;9.53;;
11548;SDS011;61444;59.472;18.306;2023-04-25T12:04:34;11.03;;;8.00;;
11548;SDS011;61444;59.472;18.306;2023-04-25T12:06:44;12.43;;;9.13;;
11548;SDS011;61444;59.472;18.306;2023-04-25T12:09:01;11.40;;;8.97;;
11548;SDS011;61444;59.472;18.306;2023-04-25T12:11:20;13.73;;;8.80;;
11548;SDS011;61444;59.472;18.306;2023-04-25T12:13:29;11.10;;;8.67;;
11548;SDS011;61444;59.472;18.306;2023-04-25T12:15:41;12.23;;;9.37;;
11548;SDS011;61444;59.472;18.306;2023-04-25T12:17:50;12.97;;;8.80;;
11548;SDS011;61444;59.472;18.306;2023-04-25T12:20:00;10.10;;;8.33;;
11548;SDS011;61444;59.472;18.306;2023-04-25T12:22:20;10.23;;;8.37;;
11548;SDS011;61444;59.472;18.306;2023-04-25T12:24:32;10.53;;;8.10;;
11548;SDS011;61444;59.472;18.306;2023-04-25T12:26:48;11.20;;;8.33;;
11548;SDS011;61444;59.472;18.306;2023-04-25T12:28:58;9.93;;;8.27;;
11548;SDS011;61444;59.472;18.306;2023-04-25T12:31:09;10.33;;;8.30;;
11548;SDS011;61444;59.472;18.306;2023-04-25T12:33:21;11.87;;;8.67;;
11548;SDS011;61444;59.472;18.306;2023-04-25T12:35:30;12.37;;;8.63;;
11548;SDS011;61444;59.472;18.306;2023-04-25T12:37:40;10.90;;;8.77;;
11548;SDS011;61444;59.472;18.306;2023-04-25T12:39:49;12.43;;;8.73;;
11548;SDS011;61444;59.472;18.306;2023-04-25T12:41:58;10.30;;;8.33;;
11548;SDS011;61444;59.472;18.306;2023-04-25T12:44:07;11.73;;;8.53;;
11548;SDS011;61444;59.472;18.306;2023-04-25T12:46:18;10.23;;;8.07;;
11548;SDS011;61444;59.472;18.306;2023-04-25T12:48:27;11.20;;;8.03;;
11548;SDS011;61444;59.472;18.306;2023-04-25T12:50:36;11.83;;;7.67;;
11548;SDS011;61444;59.472;18.306;2023-04-25T12:52:46;10.43;;;8.13;;